Time;durP1;ratioP1;P1;durP2;ratioP2;P2;SDS_P1;SDS_P2;PMS_P1;PMS_P2;Temp;Humidity;BMP_temperature;BMP_pressure;BME280_temperature;BME280_humidity;BME280_pressure;Samples;Min_cycle;Max_cycle;Signal;HPM_P1;HPM_P2
2022/04/10 00:00:53;;;;;;;13.48;3.53;;;4.00;99.90;;;;;;5073515;28;20059;-62
2022/04/10 00:03:19;;;;;;;10.25;2.22;;;4.00;99.90;;;;;;5073280;28;20044;-63
2022/04/10 00:05:46;;;;;;;17.30;2.45;;;4.10;99.90;;;;;;5073707;28;20175;-63
2022/04/10 00:08:11;;;;;;;11.52;2.42;;;4.10;99.90;;;;;;5073014;28;20045;-62
2022/04/10 00:10:37;;;;;;;13.43;2.63;;;4.10;99.90;;;;;;5073549;28;20043;-62
2022/04/10 00:13:03;;;;;;;9.70;2.22;;;4.10;99.90;;;;;;5073170;28;20119;-62
2022/04/10 00:15:29;;;;;;;11.75;2.47;;;4.20;99.90;;;;;;5073488;28;20119;-62
2022/04/10 00:17:54;;;;;;;14.30;2.88;;;4.20;99.90;;;;;;5073007;28;20040;-62
2022/04/10 00:20:20;;;;;;;11.68;2.60;;;4.20;99.90;;;;;;5073512;28;20350;-62
2022/04/10 00:22:47;;;;;;;14.50;2.65;;;4.30;99.90;;;;;;5071573;28;20529;-63
2022/04/10 00:25:15;;;;;;;12.65;2.58;;;4.30;99.90;;;;;;5053440;28;20037;-62
2022/04/10 00:27:41;;;;;;;14.32;3.67;;;4.40;99.90;;;;;;5044867;28;20040;-62
2022/04/10 00:30:09;;;;;;;13.77;2.85;;;4.40;99.90;;;;;;5053418;28;20102;-62
2022/04/10 00:32:34;;;;;;;16.00;2.90;;;4.40;99.90;;;;;;5052409;28;20048;-62
2022/04/10 00:35:00;;;;;;;17.95;3.45;;;4.40;99.90;;;;;;5053233;28;20039;-62
2022/04/10 00:37:26;;;;;;;17.50;3.30;;;4.30;99.90;;;;;;5052939;28;20442;-62
2022/04/10 00:39:53;;;;;;;17.15;3.60;;;4.20;99.90;;;;;;5053247;28;20124;-62
2022/04/10 00:42:19;;;;;;;12.38;2.90;;;4.20;99.90;;;;;;5053032;28;20549;-62
2022/04/10 00:44:45;;;;;;;17.90;3.15;;;4.10;99.90;;;;;;5052893;28;20041;-63
2022/04/10 00:47:11;;;;;;;15.45;2.83;;;4.10;99.90;;;;;;5052690;28;20442;-63
2022/04/10 00:49:37;;;;;;;17.20;3.38;;;4.10;99.90;;;;;;5052804;28;20037;-62
2022/04/10 00:52:06;;;;;;;13.40;2.78;;;4.10;99.90;;;;;;5053136;28;20037;-62
2022/04/10 00:54:34;;;;;;;13.57;2.80;;;4.10;99.90;;;;;;5052608;28;20037;-62
2022/04/10 00:57:01;;;;;;;11.85;2.72;;;4.10;99.90;;;;;;5052856;28;20124;-62
2022/04/10 00:59:27;;;;;;;14.50;2.60;;;4.10;99.90;;;;;;5052567;28;20123;-62
2022/04/10 01:01:53;;;;;;;17.02;3.03;;;4.20;99.90;;;;;;5052962;28;20032;-62
2022/04/10 01:04:18;;;;;;;14.68;2.95;;;4.20;99.90;;;;;;5052503;28;20442;-62
2022/04/10 01:06:47;;;;;;;15.18;2.70;;;4.20;99.90;;;;;;5052637;28;20041;-62
2022/04/10 01:09:14;;;;;;;12.40;3.22;;;4.20;99.90;;;;;;5052602;28;20124;-62
2022/04/10 01:11:40;;;;;;;15.48;3.00;;;4.20;99.90;;;;;;5052687;28;20489;-62
2022/04/10 01:14:06;;;;;;;16.52;4.25;;;4.20;99.90;;;;;;5052694;28;20128;-62
2022/04/10 01:16:32;;;;;;;18.20;3.67;;;4.20;99.90;;;;;;5052459;28;20087;-63
2022/04/10 01:19:00;;;;;;;15.23;2.80;;;4.20;99.90;;;;;;5052517;28;20095;-62
2022/04/10 01:21:27;;;;;;;18.83;3.35;;;4.20;99.90;;;;;;5054663;28;20044;-62
2022/04/10 01:23:54;;;;;;;15.70;2.97;;;4.30;99.90;;;;;;5056057;28;20057;-63
2022/04/10 01:26:21;;;;;;;13.93;3.60;;;4.30;99.90;;;;;;5056422;28;20330;-63
2022/04/10 01:29:00;;;;;;;15.82;2.80;;;4.30;99.90;;;;;;5056127;28;20056;-62
2022/04/10 01:31:27;;;;;;;13.15;2.60;;;4.30;99.90;;;;;;5056106;28;20388;-62
2022/04/10 01:33:57;;;;;;;11.65;2.92;;;4.30;99.90;;;;;;5056076;28;20174;-62
2022/04/10 01:36:27;;;;;;;12.50;2.55;;;4.30;99.90;;;;;;5056323;28;20137;-62
2022/04/10 01:38:55;;;;;;;14.45;3.22;;;4.40;99.90;;;;;;5038484;28;20389;-62
2022/04/10 01:41:25;;;;;;;10.55;2.60;;;4.40;99.90;;;;;;5056047;28;20041;-62
2022/04/10 01:43:52;;;;;;;12.25;2.60;;;4.40;99.90;;;;;;5038041;28;20045;-62
2022/04/10 01:46:17;;;;;;;8.77;2.47;;;4.30;99.90;;;;;;5048229;28;20041;-62
2022/04/10 01:48:44;;;;;;;5.80;1.77;;;4.30;99.90;;;;;;5050345;28;20044;-62
2022/04/10 01:51:09;;;;;;;11.38;2.47;;;4.20;99.90;;;;;;5055996;28;20036;-62
2022/04/10 01:53:36;;;;;;;7.40;2.20;;;4.30;99.90;;;;;;5055658;28;20047;-62
2022/04/10 01:56:03;;;;;;;11.55;2.17;;;4.20;99.90;;;;;;5055778;28;20043;-63
2022/04/10 01:58:29;;;;;;;11.15;2.50;;;4.20;99.90;;;;;;5055593;28;20052;-62
2022/04/10 02:00:55;;;;;;;14.60;2.28;;;4.20;99.90;;;;;;5055506;28;20098;-62
2022/04/10 02:03:20;;;;;;;9.43;2.50;;;4.10;99.90;;;;;;5054958;28;20033;-62
2022/04/10 02:05:46;;;;;;;16.67;2.85;;;4.20;99.90;;;;;;5055907;28;20095;-62
2022/04/10 02:08:13;;;;;;;11.63;2.40;;;4.20;99.90;;;;;;5055429;28;20060;-63
2022/04/10 02:10:39;;;;;;;13.40;2.53;;;4.20;99.90;;;;;;5055635;28;20091;-61
2022/04/10 02:13:07;;;;;;;11.95;2.78;;;4.30;99.90;;;;;;5055297;28;20069;-62
2022/04/10 02:15:38;;;;;;;14.15;2.97;;;4.30;99.90;;;;;;5055419;28;20450;-62
2022/04/10 02:18:04;;;;;;;14.85;2.25;;;4.30;99.90;;;;;;5055270;28;20049;-62
2022/04/10 02:20:30;;;;;;;10.57;2.45;;;4.30;99.90;;;;;;5055431;28;20052;-62
2022/04/10 02:22:56;;;;;;;12.93;2.67;;;4.30;99.90;;;;;;5054922;28;20052;-62
2022/04/10 02:25:21;;;;;;;11.85;2.80;;;4.30;99.90;;;;;;5055187;28;20045;-63
2022/04/10 02:27:47;;;;;;;13.93;2.80;;;4.40;99.90;;;;;;5055182;28;20122;-63
2022/04/10 02:30:13;;;;;;;13.20;2.72;;;4.30;99.90;;;;;;5055278;28;20498;-62
2022/04/10 02:32:40;;;;;;;17.88;2.78;;;4.30;99.90;;;;;;5054514;28;20173;-62
2022/04/10 02:35:07;;;;;;;17.65;3.35;;;4.30;99.90;;;;;;5054940;28;20048;-63
2022/04/10 02:37:33;;;;;;;11.80;2.40;;;4.30;99.90;;;;;;5054781;28;20045;-62
2022/04/10 02:39:58;;;;;;;16.73;2.63;;;4.30;99.90;;;;;;5054770;28;20469;-62
2022/04/10 02:42:24;;;;;;;16.15;3.47;;;4.30;99.90;;;;;;5054792;28;20045;-62
2022/04/10 02:44:50;;;;;;;14.13;3.00;;;4.30;99.90;;;;;;5055087;28;20163;-62
2022/04/10 02:47:16;;;;;;;20.23;3.47;;;4.30;99.90;;;;;;5054599;28;20064;-62
2022/04/10 02:49:42;;;;;;;18.98;3.15;;;4.30;99.90;;;;;;5055035;28;20083;-62
2022/04/10 02:52:08;;;;;;;18.63;3.50;;;4.30;99.90;;;;;;5037065;28;20048;-63
2022/04/10 02:54:34;;;;;;;22.85;4.07;;;4.20;99.90;;;;;;5054447;28;20037;-63
2022/04/10 02:56:59;;;;;;;20.27;3.47;;;4.30;99.90;;;;;;5054837;28;20350;-62
2022/04/10 02:59:25;;;;;;;9.20;2.75;;;4.30;99.90;;;;;;5054170;28;20052;-62
2022/04/10 03:01:50;;;;;;;15.77;3.53;;;4.30;99.90;;;;;;5054600;28;20055;-63
2022/04/10 03:04:19;;;;;;;24.38;4.18;;;4.20;99.90;;;;;;5054494;28;20045;-63
2022/04/10 03:06:45;;;;;;;17.55;3.80;;;4.20;99.90;;;;;;5054324;28;20454;-62
2022/04/10 03:09:10;;;;;;;17.15;3.78;;;4.10;99.90;;;;;;5054397;28;20124;-61
2022/04/10 03:11:36;;;;;;;17.23;3.55;;;4.20;99.90;;;;;;5036637;28;20124;-62
2022/04/10 03:14:03;;;;;;;11.98;3.90;;;4.20;99.90;;;;;;5036267;28;20040;-61
2022/04/10 03:16:28;;;;;;;15.63;3.65;;;4.30;99.90;;;;;;5054256;28;20045;-61
2022/04/10 03:18:54;;;;;;;13.10;2.80;;;4.20;99.90;;;;;;5036508;28;20064;-62
2022/04/10 03:21:20;;;;;;;15.57;2.55;;;4.20;99.90;;;;;;5054257;28;20095;-62
2022/04/10 03:23:46;;;;;;;10.70;2.20;;;4.20;99.90;;;;;;5053435;28;20130;-62
2022/04/10 03:26:12;;;;;;;8.35;2.20;;;4.20;99.90;;;;;;5053949;28;20063;-62
2022/04/10 03:28:37;;;;;;;10.93;2.15;;;4.20;99.90;;;;;;5053739;28;20396;-62
2022/04/10 03:31:03;;;;;;;11.02;3.00;;;4.10;99.90;;;;;;5053868;28;20041;-62
2022/04/10 03:33:30;;;;;;;11.35;2.30;;;4.10;99.90;;;;;;5053575;28;20156;-62
2022/04/10 03:35:56;;;;;;;10.68;2.15;;;4.20;99.90;;;;;;5053940;28;20136;-62
2022/04/10 03:38:21;;;;;;;9.65;2.10;;;4.10;99.90;;;;;;5053822;28;20044;-62
2022/04/10 03:40:47;;;;;;;12.55;2.55;;;4.10;99.90;;;;;;5053953;28;20045;-62
2022/04/10 03:43:13;;;;;;;8.80;2.33;;;4.10;99.90;;;;;;5053118;28;20041;-62
2022/04/10 03:45:39;;;;;;;10.63;2.17;;;4.00;99.90;;;;;;5053777;28;20150;-63
2022/04/10 03:48:06;;;;;;;21.67;3.33;;;4.00;99.90;;;;;;5053396;28;20041;-62
2022/04/10 03:50:33;;;;;;;13.18;2.35;;;4.00;99.90;;;;;;5053834;28;20037;-63
2022/04/10 03:53:03;;;;;;;6.85;2.25;;;4.00;99.90;;;;;;5053334;28;20048;-63
2022/04/10 03:55:30;;;;;;;6.95;2.00;;;4.10;99.90;;;;;;5053496;28;20041;-63
2022/04/10 03:57:56;;;;;;;9.82;2.63;;;4.10;99.90;;;;;;5053507;28;20437;-62
2022/04/10 04:00:21;;;;;;;8.13;1.67;;;4.10;99.90;;;;;;5053738;28;20120;-62
2022/04/10 04:02:47;;;;;;;7.55;1.92;;;4.10;99.90;;;;;;5053134;28;20110;-61
2022/04/10 04:05:13;;;;;;;10.20;2.17;;;4.00;99.90;;;;;;5053596;28;20102;-62
2022/04/10 04:07:39;;;;;;;10.15;2.05;;;4.00;99.90;;;;;;5052897;28;20533;-61
2022/04/10 04:10:06;;;;;;;8.02;2.30;;;4.00;99.90;;;;;;5053614;28;20044;-61
2022/04/10 04:12:34;;;;;;;6.40;1.90;;;4.00;99.90;;;;;;5053116;28;20045;-61
2022/04/10 04:14:59;;;;;;;7.50;2.08;;;4.00;99.90;;;;;;5053581;28;20060;-61
2022/04/10 04:17:25;;;;;;;9.88;3.00;;;4.00;99.90;;;;;;5053117;28;20492;-61
2022/04/10 04:19:51;;;;;;;10.23;3.25;;;4.00;99.90;;;;;;5035810;28;20099;-61
2022/04/10 04:22:17;;;;;;;6.57;2.05;;;4.00;99.90;;;;;;5053182;28;20108;-61
2022/04/10 04:24:43;;;;;;;5.03;1.40;;;4.00;99.90;;;;;;5053064;28;20132;-61
2022/04/10 04:27:09;;;;;;;4.30;1.48;;;4.00;99.90;;;;;;5052978;28;20102;-62
2022/04/10 04:29:35;;;;;;;6.90;1.60;;;4.00;99.90;;;;;;5052866;28;20045;-62
2022/04/10 04:32:01;;;;;;;6.72;1.52;;;3.90;99.90;;;;;;5052972;28;20099;-62
2022/04/10 04:34:27;;;;;;;6.15;1.73;;;4.00;99.90;;;;;;5052961;28;20037;-61
2022/04/10 04:36:53;;;;;;;7.20;1.95;;;3.90;99.90;;;;;;5053204;28;20401;-61
2022/04/10 04:39:18;;;;;;;4.15;1.45;;;3.90;99.90;;;;;;5052964;28;20081;-61
2022/04/10 04:41:44;;;;;;;7.25;1.60;;;3.90;99.90;;;;;;5053374;28;20051;-61
2022/04/10 04:44:10;;;;;;;5.38;1.50;;;3.80;99.90;;;;;;5035084;28;20068;-62
2022/04/10 04:46:36;;;;;;;6.53;1.63;;;3.80;99.90;;;;;;5053144;28;20033;-62
2022/04/10 04:49:02;;;;;;;7.72;1.70;;;3.80;99.90;;;;;;5052824;28;20045;-61
2022/04/10 04:51:28;;;;;;;6.65;1.65;;;3.80;99.90;;;;;;5052939;28;20083;-61
2022/04/10 04:53:54;;;;;;;4.18;1.30;;;3.70;99.90;;;;;;5052885;28;20040;-61
2022/04/10 04:56:19;;;;;;;6.40;1.58;;;3.70;99.90;;;;;;5054491;28;20048;-63
2022/04/10 04:58:47;;;;;;;6.60;1.33;;;3.70;99.90;;;;;;5056925;28;20037;-62
2022/04/10 05:01:13;;;;;;;3.80;1.67;;;3.70;99.90;;;;;;5056684;28;20044;-61
2022/04/10 05:03:39;;;;;;;3.08;1.38;;;3.70;99.90;;;;;;5056631;28;20049;-61
2022/04/10 05:06:04;;;;;;;6.95;1.58;;;3.60;99.90;;;;;;5056809;28;20037;-61
2022/04/10 05:08:30;;;;;;;5.88;1.42;;;3.70;99.90;;;;;;5056565;28;20041;-62
2022/04/10 05:10:56;;;;;;;5.30;1.40;;;3.70;99.90;;;;;;5056526;28;20123;-61
2022/04/10 05:13:22;;;;;;;5.22;1.50;;;3.70;99.90;;;;;;5056370;28;20108;-61
2022/04/10 05:15:47;;;;;;;3.92;1.42;;;3.70;99.90;;;;;;5056521;28;20106;-61
2022/04/10 05:18:13;;;;;;;3.10;1.10;;;3.70;99.90;;;;;;5038815;28;20038;-61
2022/04/10 05:20:41;;;;;;;5.70;1.55;;;3.60;99.90;;;;;;5056672;28;20092;-61
2022/04/10 05:23:06;;;;;;;4.60;1.45;;;3.60;99.90;;;;;;5059920;28;20143;-61
2022/04/10 05:25:32;;;;;;;4.75;1.30;;;3.60;99.90;;;;;;5076547;28;20087;-61
2022/04/10 05:27:58;;;;;;;5.35;1.10;;;3.60;99.90;;;;;;5070376;28;20446;-61
2022/04/10 05:30:23;;;;;;;3.17;1.10;;;3.70;99.90;;;;;;5073918;28;20029;-61
2022/04/10 05:32:49;;;;;;;3.47;1.30;;;3.70;99.90;;;;;;5058555;28;20123;-61
2022/04/10 05:35:16;;;;;;;5.47;1.60;;;3.80;99.90;;;;;;5076386;28;20454;-62
2022/04/10 05:37:41;;;;;;;7.47;1.77;;;3.80;99.90;;;;;;5076198;28;20119;-62
2022/04/10 05:40:08;;;;;;;6.28;1.42;;;3.80;99.90;;;;;;5058454;28;20131;-61
2022/04/10 05:42:38;;;;;;;6.38;1.30;;;3.80;99.90;;;;;;5075810;28;20048;-62
2022/04/10 05:45:04;;;;;;;6.75;1.48;;;3.80;99.90;;;;;;5076249;28;20096;-62
2022/04/10 05:47:30;;;;;;;6.63;1.45;;;3.90;99.90;;;;;;5073830;28;20048;-61
2022/04/10 05:49:56;;;;;;;4.72;1.38;;;3.90;99.90;;;;;;5069650;28;20128;-62
2022/04/10 05:52:21;;;;;;;7.07;1.77;;;3.90;99.90;;;;;;5075675;28;20036;-62
2022/04/10 05:54:47;;;;;;;4.47;1.40;;;4.00;99.90;;;;;;5076178;28;20115;-62
2022/04/10 05:57:12;;;;;;;4.43;1.40;;;4.00;99.90;;;;;;5075950;28;20094;-63
2022/04/10 05:59:38;;;;;;;3.60;1.40;;;4.00;99.90;;;;;;5067514;28;20059;-62
2022/04/10 06:02:04;;;;;;;7.15;1.80;;;4.00;99.90;;;;;;5075355;28;20085;-62
2022/04/10 06:04:30;;;;;;;4.50;1.58;;;4.00;99.90;;;;;;5075748;28;20182;-62
2022/04/10 06:06:55;;;;;;;3.47;1.23;;;4.00;99.90;;;;;;5075307;28;20165;-62
2022/04/10 06:09:21;;;;;;;3.65;1.25;;;4.00;99.90;;;;;;5075456;28;20361;-61
2022/04/10 06:11:46;;;;;;;3.80;1.48;;;4.20;99.90;;;;;;5075624;28;20394;-62
2022/04/10 06:14:12;;;;;;;4.03;1.10;;;4.60;99.90;;;;;;5075390;28;20477;-62
2022/04/10 06:16:38;;;;;;;2.95;1.20;;;5.40;99.90;;;;;;5057501;28;20040;-62
2022/04/10 06:19:03;;;;;;;6.72;1.38;;;5.60;99.90;;;;;;5075011;28;20055;-63
2022/04/10 06:21:29;;;;;;;7.05;1.58;;;5.40;99.90;;;;;;5075404;28;20047;-62
2022/04/10 06:23:55;;;;;;;5.28;1.30;;;5.30;99.90;;;;;;5059907;28;20053;-62
2022/04/10 06:26:21;;;;;;;2.70;1.00;;;5.10;99.90;;;;;;5075032;28;20046;-61
2022/04/10 06:28:47;;;;;;;5.40;1.38;;;4.80;99.90;;;;;;5064862;28;20041;-62
2022/04/10 06:31:14;;;;;;;5.10;1.38;;;4.70;99.90;;;;;;5052065;28;20040;-62
2022/04/10 06:33:39;;;;;;;5.10;1.15;;;4.60;99.90;;;;;;5071375;28;20094;-62
2022/04/10 06:36:05;;;;;;;4.50;1.50;;;4.60;99.90;;;;;;5074657;28;20036;-63
2022/04/10 06:38:31;;;;;;;5.47;1.30;;;4.70;99.90;;;;;;5073814;28;20106;-62
2022/04/10 06:40:56;;;;;;;4.20;1.40;;;5.10;99.90;;;;;;5071631;28;20460;-62
2022/04/10 06:43:22;;;;;;;3.78;1.00;;;5.50;99.90;;;;;;5073920;28;20051;-63
2022/04/10 06:45:47;;;;;;;3.75;1.17;;;5.80;99.90;;;;;;5074196;28;20040;-62
2022/04/10 06:48:14;;;;;;;3.03;1.23;;;5.70;99.90;;;;;;5063089;28;20044;-62
2022/04/10 06:50:39;;;;;;;5.10;1.30;;;5.50;99.90;;;;;;5074471;28;20033;-62
2022/04/10 06:53:05;;;;;;;4.20;1.27;;;5.40;99.90;;;;;;5073796;28;20059;-63
2022/04/10 06:55:32;;;;;;;5.75;1.20;;;5.20;99.90;;;;;;5074364;28;20108;-62
2022/04/10 06:57:57;;;;;;;5.45;1.20;;;5.60;99.90;;;;;;5069395;28;20043;-62
2022/04/10 07:00:23;;;;;;;5.63;1.27;;;6.10;99.90;;;;;;5036837;28;20128;-62
2022/04/10 07:02:49;;;;;;;5.20;1.40;;;6.60;99.90;;;;;;5053403;28;20431;-62
2022/04/10 07:05:15;;;;;;;8.27;1.50;;;7.10;99.90;;;;;;5073994;28;20039;-63
2022/04/10 07:07:42;;;;;;;5.53;1.40;;;7.40;99.90;;;;;;5072311;28;20465;-63
2022/04/10 07:10:08;;;;;;;7.90;1.55;;;7.80;99.90;;;;;;5053992;28;20083;-62
2022/04/10 07:12:33;;;;;;;6.88;1.45;;;7.60;99.90;;;;;;5053612;28;20063;-62
2022/04/10 07:15:03;;;;;;;7.45;1.52;;;7.60;99.90;;;;;;5053970;28;20029;-63
2022/04/10 07:17:29;;;;;;;5.07;1.10;;;7.50;99.90;;;;;;5054887;28;20115;-63
2022/04/10 07:19:55;;;;;;;4.72;1.67;;;7.30;99.90;;;;;;5070429;28;20078;-63
2022/04/10 07:25:06;;;;;;;5.07;1.17;;;7.10;99.90;;;;;;5073332;28;20045;-62
2022/04/10 07:27:31;;;;;;;4.43;1.65;;;7.10;99.90;;;;;;5072646;28;20052;-62
2022/04/10 07:29:57;;;;;;;8.30;1.48;;;7.20;99.90;;;;;;5053753;28;20045;-62
2022/04/10 07:32:24;;;;;;;6.40;1.60;;;7.20;99.90;;;;;;5053179;28;20029;-63
2022/04/10 07:34:50;;;;;;;4.55;1.30;;;7.00;99.90;;;;;;5053454;28;20055;-64
2022/04/10 07:37:16;;;;;;;5.18;1.40;;;7.00;99.90;;;;;;5073621;28;20028;-62
2022/04/10 07:39:41;;;;;;;9.77;1.80;;;7.10;99.90;;;;;;5037233;28;20352;-63
2022/04/10 07:42:08;;;;;;;7.53;1.60;;;7.10;99.90;;;;;;5053276;28;20033;-63
2022/04/10 07:44:34;;;;;;;9.02;1.55;;;7.20;99.90;;;;;;5053505;28;20044;-63
2022/04/10 07:49:45;;;;;;;9.30;1.83;;;7.40;99.90;;;;;;5073269;28;20045;-62
2022/04/10 07:52:12;;;;;;;9.90;1.70;;;7.50;99.90;;;;;;5072960;28;20043;-63
2022/04/10 07:54:38;;;;;;;8.25;1.73;;;7.50;99.90;;;;;;5073401;28;20052;-63
2022/04/10 07:57:04;;;;;;;6.80;1.65;;;7.60;99.90;;;;;;5073268;28;20040;-62
2022/04/10 07:59:30;;;;;;;6.78;1.80;;;7.80;99.90;;;;;;5073461;28;20055;-63
2022/04/10 08:02:02;;;;;;;8.23;1.80;;;7.90;99.90;;;;;;5071072;28;20040;-62
2022/04/10 08:04:28;;;;;;;10.15;1.80;;;7.90;99.90;;;;;;5055063;28;20040;-63
2022/04/10 08:06:54;;;;;;;8.95;1.77;;;7.70;99.90;;;;;;5053718;28;20043;-62
2022/04/10 08:09:20;;;;;;;11.23;1.92;;;7.80;99.90;;;;;;5069487;28;20116;-63
2022/04/10 08:11:45;;;;;;;6.35;1.80;;;8.00;99.90;;;;;;5071646;28;20032;-64
2022/04/10 08:14:11;;;;;;;10.30;2.13;;;8.00;99.90;;;;;;5070379;28;20029;-64
2022/04/10 08:16:37;;;;;;;4.93;1.90;;;7.90;99.90;;;;;;5070849;28;20119;-65
2022/04/10 08:19:02;;;;;;;6.45;1.75;;;7.60;99.90;;;;;;5072315;28;20028;-64
2022/04/10 08:21:29;;;;;;;8.85;1.60;;;7.60;99.90;;;;;;5072649;28;20040;-64
2022/04/10 08:23:55;;;;;;;7.32;1.88;;;7.70;99.90;;;;;;5071909;28;20125;-64
2022/04/10 08:26:20;;;;;;;5.30;1.50;;;8.00;99.90;;;;;;5071843;28;20132;-63
2022/04/10 08:28:46;;;;;;;12.73;2.45;;;8.40;99.90;;;;;;5065020;28;20055;-63
2022/04/10 08:31:11;;;;;;;5.85;2.08;;;8.60;99.90;;;;;;5079465;28;20136;-62
2022/04/10 08:33:37;;;;;;;8.55;2.53;;;8.60;99.90;;;;;;5079718;28;20040;-63
2022/04/10 08:36:03;;;;;;;10.43;2.08;;;8.50;99.90;;;;;;5074136;28;20028;-62
2022/04/10 08:38:29;;;;;;;8.70;1.75;;;8.40;99.90;;;;;;5072217;28;20033;-63
2022/04/10 08:41:02;;;;;;;8.60;1.85;;;8.30;99.90;;;;;;5074783;28;20181;-63
2022/04/10 08:43:29;;;;;;;9.00;1.90;;;8.40;99.90;;;;;;5072960;28;20040;-63
2022/04/10 08:45:58;;;;;;;8.90;2.03;;;8.50;99.90;;;;;;5044201;28;20037;-62
2022/04/10 08:48:26;;;;;;;12.07;2.22;;;8.70;99.90;;;;;;5071098;28;20533;-62
2022/04/10 08:50:55;;;;;;;12.13;2.00;;;8.80;99.90;;;;;;5069833;28;20114;-63
2022/04/10 08:53:22;;;;;;;6.45;1.60;;;9.00;99.90;;;;;;5078134;28;20086;-63
2022/04/10 08:55:48;;;;;;;24.35;13.52;;;8.90;99.90;;;;;;5080084;28;20037;-64
2022/04/10 08:58:14;;;;;;;9.25;2.10;;;9.00;99.90;;;;;;5073952;28;20032;-62
2022/04/10 09:00:43;;;;;;;4.95;1.55;;;9.20;99.90;;;;;;5079768;28;20033;-64
2022/04/10 09:03:08;;;;;;;9.65;1.80;;;9.10;99.90;;;;;;5079892;28;20067;-63
2022/04/10 09:05:34;;;;;;;10.20;2.40;;;8.90;99.90;;;;;;5080329;28;20533;-63
2022/04/10 09:08:13;;;;;;;8.50;1.88;;;9.00;99.90;;;;;;5079918;28;20111;-63
2022/04/10 09:10:52;;;;;;;8.35;1.77;;;8.90;99.90;;;;;;5080180;28;20044;-64
2022/04/10 09:13:36;;;;;;;8.57;2.22;;;8.90;99.90;;;;;;5080045;28;20047;-63
2022/04/10 09:16:16;;;;;;;8.63;2.95;;;9.00;99.90;;;;;;5059953;28;20029;-63
2022/04/10 09:18:47;;;;;;;24.20;14.70;;;9.30;99.90;;;;;;5071191;28;20141;-64
2022/04/10 09:21:14;;;;;;;6.10;1.55;;;9.40;99.90;;;;;;5079355;28;20036;-64
2022/04/10 09:23:39;;;;;;;9.85;2.20;;;9.20;99.90;;;;;;5061898;28;20071;-64
2022/04/10 09:26:05;;;;;;;7.72;1.50;;;8.80;99.90;;;;;;5080095;28;20044;-63
2022/04/10 09:28:45;;;;;;;8.00;1.60;;;8.70;99.90;;;;;;5077823;28;20063;-64
2022/04/10 09:31:31;;;;;;;10.30;2.15;;;8.90;99.90;;;;;;5076435;28;20046;-64
2022/04/10 09:33:59;;;;;;;8.98;2.33;;;8.90;99.90;;;;;;5060434;28;20051;-63
2022/04/10 09:36:31;;;;;;;8.75;1.83;;;9.10;99.90;;;;;;5078931;28;20032;-64
2022/04/10 09:38:57;;;;;;;7.55;1.77;;;9.20;99.90;;;;;;5070702;28;20401;-63
2022/04/10 09:41:22;;;;;;;7.65;1.40;;;9.30;99.90;;;;;;5040515;28;20049;-61
2022/04/10 09:43:49;;;;;;;5.93;1.38;;;9.50;99.90;;;;;;5056096;28;20382;-64
2022/04/10 09:46:14;;;;;;;6.40;1.65;;;9.50;99.90;;;;;;5056854;28;20052;-64
2022/04/10 09:48:40;;;;;;;8.75;1.98;;;9.60;99.90;;;;;;5066614;28;20044;-66
2022/04/10 09:51:05;;;;;;;9.07;1.80;;;9.60;99.90;;;;;;5076200;28;20041;-64
2022/04/10 09:53:33;;;;;;;8.57;1.90;;;9.80;99.90;;;;;;5051539;28;20047;-65
2022/04/10 09:56:00;;;;;;;9.57;1.77;;;9.90;99.90;;;;;;5075957;28;20068;-64
2022/04/10 09:58:27;;;;;;;9.75;1.98;;;9.90;99.90;;;;;;5076380;28;20040;-64
2022/04/10 10:00:54;;;;;;;5.05;1.30;;;9.80;99.90;;;;;;5076431;28;20051;-64
2022/04/10 10:03:21;;;;;;;6.70;1.23;;;10.00;99.90;;;;;;5057968;28;20499;-64
2022/04/10 10:05:49;;;;;;;5.68;1.42;;;10.10;99.90;;;;;;5076137;28;20474;-65
2022/04/10 10:08:17;;;;;;;4.50;1.35;;;10.30;99.90;;;;;;5051893;28;20389;-65
2022/04/10 10:10:42;;;;;;;7.45;1.77;;;10.20;99.90;;;;;;5067675;28;20514;-64
2022/04/10 10:13:08;;;;;;;5.43;1.63;;;10.30;99.90;;;;;;5075845;28;20135;-64
2022/04/10 10:15:35;;;;;;;11.02;2.25;;;10.30;99.90;;;;;;5070601;28;20477;-64
2022/04/10 10:18:02;;;;;;;7.95;1.60;;;10.00;99.90;;;;;;5060229;28;20079;-65
2022/04/10 10:20:29;;;;;;;7.95;1.52;;;10.00;99.90;;;;;;5058427;28;20063;-65
2022/04/10 10:22:55;;;;;;;7.68;1.70;;;10.00;99.90;;;;;;5073035;28;20137;-64
2022/04/10 10:25:41;;;;;;;5.63;1.45;;;9.90;99.90;;;;;;5057505;28;20135;-64
2022/04/10 10:28:32;;;;;;;5.65;1.23;;;10.00;99.90;;;;;;5047513;28;20062;-64
2022/04/10 10:31:25;;;;;;;3.78;1.10;;;9.90;99.90;;;;;;5075569;28;20156;-64
2022/04/10 10:33:55;;;;;;;5.47;1.50;;;9.70;99.90;;;;;;5075062;28;20043;-65
2022/04/10 10:36:29;;;;;;;6.07;1.38;;;9.60;99.90;;;;;;5057729;28;20129;-64
2022/04/10 10:38:56;;;;;;;8.05;1.58;;;9.70;99.90;;;;;;5072230;28;20127;-65
2022/04/10 10:41:22;;;;;;;4.95;1.50;;;9.80;99.90;;;;;;5074800;28;20048;-65
2022/04/10 10:43:48;;;;;;;7.13;1.83;;;10.00;99.90;;;;;;5056037;28;20128;-65
2022/04/10 10:46:34;;;;;;;6.20;1.25;;;10.10;99.90;;;;;;5058589;28;20043;-65
2022/04/10 10:49:13;;;;;;;4.93;1.58;;;10.00;99.90;;;;;;5073407;28;20461;-63
2022/04/10 10:51:42;;;;;;;8.40;1.20;;;10.00;99.90;;;;;;5071952;28;20432;-64
2022/04/10 10:54:11;;;;;;;8.60;2.47;;;10.30;99.90;;;;;;5059382;28;20032;-64
2022/04/10 10:56:39;;;;;;;6.07;1.60;;;10.10;99.90;;;;;;5041329;28;20075;-64
2022/04/10 10:59:26;;;;;;;5.13;1.08;;;10.10;99.90;;;;;;5063736;28;20045;-64
2022/04/10 11:02:10;;;;;;;5.93;1.42;;;9.90;99.90;;;;;;5055550;28;20120;-65
2022/04/10 11:04:46;;;;;;;8.67;1.43;;;10.10;99.90;;;;;;5057767;28;20120;-64
2022/04/10 11:07:21;;;;;;;6.40;1.50;;;9.90;99.90;;;;;;5046332;28;20264;-65
2022/04/10 11:10:00;;;;;;;5.47;1.55;;;9.70;99.90;;;;;;5071931;28;20059;-65
2022/04/10 11:12:34;;;;;;;6.32;1.30;;;9.50;99.90;;;;;;5074142;28;20040;-65
2022/04/10 11:15:22;;;;;;;7.13;1.40;;;9.60;99.90;;;;;;5074285;28;20140;-65
2022/04/10 11:17:50;;;;;;;6.38;1.45;;;9.80;99.90;;;;;;5074048;28;20167;-64
2022/04/10 11:20:18;;;;;;;7.55;1.58;;;10.00;99.90;;;;;;5074683;28;20066;-65
2022/04/10 11:22:55;;;;;;;4.65;1.35;;;10.00;99.90;;;;;;5074654;28;20044;-65
2022/04/10 11:25:27;;;;;;;4.88;1.38;;;9.70;99.90;;;;;;5074845;28;20063;-65
2022/04/10 11:28:10;;;;;;;7.75;1.52;;;9.70;99.90;;;;;;5074464;28;20249;-66
2022/04/10 11:30:44;;;;;;;6.10;1.20;;;9.80;99.90;;;;;;5063015;28;20041;-65
2022/04/10 11:33:11;;;;;;;5.90;1.58;;;9.90;99.90;;;;;;5035277;28;20370;-64
2022/04/10 11:35:38;;;;;;;6.22;1.20;;;9.90;99.90;;;;;;5057798;28;20064;-66
2022/04/10 11:38:15;;;;;;;7.65;1.25;;;10.10;99.90;;;;;;5069071;28;20040;-64
2022/04/10 11:40:47;;;;;;;4.15;1.40;;;9.90;99.90;;;;;;5069835;28;20033;-64
2022/04/10 11:43:15;;;;;;;5.43;1.40;;;9.80;99.90;;;;;;5054476;28;20040;-64
2022/04/10 11:45:42;;;;;;;7.53;1.35;;;9.90;99.90;;;;;;5054417;28;20041;-64
2022/04/10 11:48:08;;;;;;;4.70;1.40;;;10.10;99.90;;;;;;5058739;28;20051;-64
2022/04/10 11:50:35;;;;;;;6.97;1.85;;;10.30;99.90;;;;;;5053041;28;20167;-64
2022/04/10 11:53:08;;;;;;;5.90;1.42;;;10.40;99.90;;;;;;5070514;28;20365;-64
2022/04/10 11:55:36;;;;;;;11.67;2.00;;;10.30;99.90;;;;;;5057483;28;20063;-66
2022/04/10 11:58:16;;;;;;;4.95;1.45;;;10.50;99.90;;;;;;5038795;28;20369;-64
2022/04/10 12:00:48;;;;;;;6.60;1.73;;;10.70;99.90;;;;;;5054220;28;20045;-65
2022/04/10 12:03:14;;;;;;;6.28;1.38;;;10.60;99.90;;;;;;5053618;28;20370;-65
2022/04/10 12:05:40;;;;;;;8.55;1.63;;;10.50;99.90;;;;;;5053832;28;20048;-65
2022/04/10 12:08:06;;;;;;;4.82;1.75;;;10.60;99.90;;;;;;5058206;28;20350;-65
2022/04/10 12:10:32;;;;;;;7.13;1.30;;;10.50;99.90;;;;;;5062894;28;20036;-65
2022/04/10 12:12:58;;;;;;;6.53;1.70;;;10.40;99.90;;;;;;5053428;28;20040;-65
2022/04/10 12:15:25;;;;;;;5.70;1.40;;;10.60;99.90;;;;;;5036443;28;20120;-66
2022/04/10 12:18:11;;;;;;;5.72;1.52;;;10.60;99.90;;;;;;5055884;28;20360;-65
2022/04/10 12:20:41;;;;;;;6.05;1.15;;;10.40;99.90;;;;;;5068412;28;20040;-65
2022/04/10 12:23:25;;;;;;;7.70;1.30;;;10.40;99.90;;;;;;5052975;28;20043;-65
2022/04/10 12:25:56;;;;;;;6.32;2.00;;;10.50;99.90;;;;;;5050949;28;20053;-64
2022/04/10 12:28:22;;;;;;;6.32;1.52;;;10.50;99.90;;;;;;5073156;28;20361;-65
2022/04/10 12:30:48;;;;;;;6.60;1.83;;;10.70;99.90;;;;;;5071599;28;20126;-65
2022/04/10 12:33:17;;;;;;;11.27;1.67;;;10.80;99.90;;;;;;5065794;28;20086;-65
2022/04/10 12:35:44;;;;;;;9.68;1.50;;;10.90;99.90;;;;;;5067452;28;20044;-65
2022/04/10 12:38:15;;;;;;;6.25;1.83;;;10.70;99.90;;;;;;5067606;28;20045;-65
2022/04/10 12:40:41;;;;;;;4.88;1.25;;;10.70;99.90;;;;;;5072668;28;20480;-66
2022/04/10 12:43:09;;;;;;;3.63;1.20;;;10.50;99.90;;;;;;5072539;28;20037;-66
2022/04/10 12:45:36;;;;;;;8.95;1.95;;;10.70;99.90;;;;;;5059627;28;20037;-65
2022/04/10 12:48:18;;;;;;;5.60;1.20;;;10.80;99.90;;;;;;5038680;28;20052;-65
2022/04/10 12:50:43;;;;;;;7.38;1.67;;;10.60;99.90;;;;;;5073473;28;20067;-65
2022/04/10 12:53:12;;;;;;;5.13;1.48;;;10.40;99.90;;;;;;5064750;28;20045;-65
2022/04/10 12:55:38;;;;;;;6.28;1.30;;;10.40;99.90;;;;;;5036042;28;20394;-65
2022/04/10 12:58:07;;;;;;;5.57;1.27;;;10.30;99.90;;;;;;5070420;28;20124;-65
2022/04/10 13:00:53;;;;;;;5.30;1.65;;;10.20;99.90;;;;;;5055678;28;20059;-65